createdAt,value
2022-10-13T00:00:13.333Z,20.25
2022-10-13T00:02:39.915Z,18.27
2022-10-13T00:05:06.781Z,23.15
2022-10-13T00:07:33.331Z,29.00
2022-10-13T00:09:59.946Z,26.05
2022-10-13T00:12:26.611Z,28.42
2022-10-13T00:14:53.280Z,25.70
2022-10-13T00:17:19.915Z,29.55
2022-10-13T00:19:46.646Z,27.80
2022-10-13T00:22:13.249Z,27.65
2022-10-13T00:24:39.908Z,27.75
2022-10-13T00:27:06.509Z,23.52
2022-10-13T00:29:33.189Z,23.27
2022-10-13T00:31:59.818Z,23.42
2022-10-13T00:34:26.574Z,23.48
2022-10-13T00:36:53.161Z,20.10
2022-10-13T00:39:19.943Z,20.67
2022-10-13T00:41:46.683Z,19.83
2022-10-13T00:44:51.002Z,18.80
2022-10-13T00:47:19.605Z,19.15
2022-10-13T00:49:46.430Z,20.60
2022-10-13T00:52:15.030Z,19.40
2022-10-13T00:54:41.967Z,19.15
2022-10-13T00:57:09.963Z,20.38
2022-10-13T00:59:39.132Z,21.15
2022-10-13T01:02:06.726Z,21.15
2022-10-13T01:04:44.091Z,20.77
2022-10-13T01:07:11.615Z,20.67
2022-10-13T01:09:38.279Z,20.67
2022-10-13T01:12:45.240Z,21.27
2022-10-13T01:15:20.848Z,20.27
2022-10-13T01:17:56.906Z,21.67
2022-10-13T01:20:54.540Z,20.73
2022-10-13T01:23:53.482Z,21.90
2022-10-13T01:26:28.844Z,22.23
2022-10-13T01:29:35.439Z,23.70
2022-10-13T01:32:31.002Z,23.67
2022-10-13T01:35:21.974Z,23.77
2022-10-13T01:38:02.319Z,21.70
2022-10-13T01:40:41.474Z,23.65
2022-10-13T01:43:14.196Z,21.83
2022-10-13T01:45:48.970Z,20.65
2022-10-13T01:48:17.961Z,19.42
2022-10-13T01:50:45.575Z,19.33
2022-10-13T01:53:13.702Z,21.10
2022-10-13T01:56:09.625Z,19.60
2022-10-13T01:58:38.275Z,21.10
2022-10-13T02:01:39.785Z,21.40
2022-10-13T02:04:25.058Z,20.42
2022-10-13T02:07:05.186Z,19.42
2022-10-13T02:09:50.269Z,19.02
2022-10-13T02:12:33.400Z,21.42
2022-10-13T02:15:01.264Z,19.92
2022-10-13T02:17:28.793Z,18.83
2022-10-13T02:19:56.612Z,18.13
2022-10-13T02:22:29.677Z,17.00
2022-10-13T02:24:56.369Z,17.10
2022-10-13T02:27:23.511Z,15.75
2022-10-13T02:29:55.530Z,15.40
2022-10-13T02:32:22.585Z,13.77
2022-10-13T02:34:50.139Z,13.93
2022-10-13T02:37:17.295Z,12.98
2022-10-13T02:39:44.090Z,12.68
2022-10-13T02:42:10.882Z,12.00
2022-10-13T02:44:37.472Z,11.95
2022-10-13T02:47:04.112Z,12.30
2022-10-13T02:49:30.696Z,12.82
2022-10-13T02:51:57.328Z,11.85
2022-10-13T02:54:24.011Z,12.63
2022-10-13T02:56:50.685Z,12.68
2022-10-13T02:59:17.346Z,10.80
2022-10-13T03:01:44.566Z,12.70
2022-10-13T03:04:11.739Z,13.90
2022-10-13T03:06:38.517Z,13.27
2022-10-13T03:09:05.172Z,12.23
2022-10-13T03:11:31.821Z,13.60
2022-10-13T03:13:58.515Z,14.55
2022-10-13T03:16:25.242Z,12.57
2022-10-13T03:18:52.252Z,11.57
2022-10-13T03:21:18.927Z,12.45
2022-10-13T03:23:45.710Z,12.10
2022-10-13T03:26:12.713Z,12.02
2022-10-13T03:28:39.498Z,12.70
2022-10-13T03:31:08.450Z,13.60
2022-10-13T03:33:35.410Z,12.03
2022-10-13T03:36:04.376Z,13.25
2022-10-13T03:38:33.582Z,12.90
2022-10-13T03:41:14.287Z,11.90
2022-10-13T03:43:42.279Z,11.93
2022-10-13T03:46:10.528Z,12.82
2022-10-13T03:48:37.833Z,12.00
2022-10-13T03:51:09.107Z,11.25
2022-10-13T03:53:36.861Z,11.65
2022-10-13T03:56:05.240Z,12.55
2022-10-13T03:58:32.181Z,12.70
2022-10-13T04:01:04.551Z,12.20
2022-10-13T04:03:31.767Z,13.07
2022-10-13T04:06:03.091Z,12.55
2022-10-13T04:08:31.348Z,12.10
2022-10-13T04:11:02.479Z,11.68
2022-10-13T04:13:29.247Z,13.00
2022-10-13T04:15:55.877Z,12.07
2022-10-13T04:18:22.492Z,13.25
2022-10-13T04:20:49.239Z,12.23
2022-10-13T04:23:15.850Z,12.73
2022-10-13T04:25:42.528Z,13.73
2022-10-13T04:28:11.393Z,15.85
2022-10-13T04:30:38.121Z,13.20
2022-10-13T04:33:05.293Z,12.90
2022-10-13T04:35:31.927Z,16.20
2022-10-13T04:37:58.689Z,15.77
2022-10-13T04:40:26.165Z,16.17
2022-10-13T04:42:52.758Z,16.20
2022-10-13T04:45:19.629Z,15.15
2022-10-13T04:47:46.227Z,15.07
2022-10-13T04:50:13.319Z,16.30
2022-10-13T04:52:40.054Z,13.50
2022-10-13T04:55:07.357Z,14.48
2022-10-13T04:57:34.049Z,14.85
2022-10-13T05:00:00.673Z,14.07
2022-10-13T05:02:28.152Z,14.95
2022-10-13T05:04:54.727Z,14.18
2022-10-13T05:07:21.324Z,14.82
2022-10-13T05:09:47.895Z,15.52
2022-10-13T05:12:15.284Z,15.30
2022-10-13T05:14:41.937Z,14.82
2022-10-13T05:17:08.799Z,14.73
2022-10-13T05:19:35.521Z,14.65
2022-10-13T05:22:02.152Z,14.13
2022-10-13T05:24:38.764Z,13.65
2022-10-13T05:27:14.375Z,13.63
2022-10-13T05:29:41.033Z,14.73
2022-10-13T05:32:08.275Z,12.73
2022-10-13T05:34:35.033Z,12.85
2022-10-13T05:37:02.073Z,12.35
2022-10-13T05:39:28.763Z,13.27
2022-10-13T05:41:55.383Z,13.75
2022-10-13T05:44:22.108Z,12.57
2022-10-13T05:46:48.825Z,12.13
2022-10-13T05:49:15.877Z,12.52
2022-10-13T05:51:50.725Z,14.98
2022-10-13T05:54:36.177Z,13.85
2022-10-13T05:57:17.615Z,14.20
2022-10-13T05:59:51.483Z,17.10
2022-10-13T06:02:20.982Z,22.80
2022-10-13T06:07:15.698Z,22.48
2022-10-13T06:09:42.951Z,19.42
2022-10-13T06:12:10.406Z,18.40
2022-10-13T06:14:37.337Z,19.05
2022-10-13T06:17:04.290Z,18.95
2022-10-13T06:19:30.924Z,21.33
2022-10-13T06:22:02.569Z,22.40
2022-10-13T06:24:30.567Z,21.40
2022-10-13T06:26:57.634Z,22.58
2022-10-13T06:29:24.359Z,20.08
2022-10-13T06:31:50.961Z,20.70
2022-10-13T06:34:17.526Z,18.02
2022-10-13T06:36:44.264Z,18.13
2022-10-13T06:39:10.853Z,19.35
2022-10-13T06:41:37.499Z,20.15
2022-10-13T06:44:04.455Z,19.05
2022-10-13T06:46:31.109Z,19.20
2022-10-13T06:48:57.771Z,18.73
2022-10-13T06:51:24.445Z,18.38
2022-10-13T06:53:51.247Z,19.45
2022-10-13T06:56:17.926Z,18.58
2022-10-13T06:58:44.621Z,19.88
2022-10-13T07:01:13.372Z,20.10
2022-10-13T07:03:40.048Z,21.00
2022-10-13T07:06:07.916Z,19.02
2022-10-13T07:08:35.209Z,18.80
2022-10-13T07:11:15.933Z,18.92
2022-10-13T07:13:46.411Z,18.25
2022-10-13T07:16:15.227Z,18.38
2022-10-13T07:18:41.889Z,16.35
2022-10-13T07:21:09.458Z,17.65
2022-10-13T07:23:36.110Z,18.33
2022-10-13T07:26:08.154Z,17.23
2022-10-13T07:28:34.999Z,15.23
2022-10-13T07:31:07.849Z,16.88
2022-10-13T07:33:34.501Z,17.90
2022-10-13T07:36:01.113Z,17.35
2022-10-13T07:38:27.790Z,16.15
2022-10-13T07:40:54.395Z,15.35
2022-10-13T07:43:21.084Z,15.60
2022-10-13T07:45:47.725Z,16.40
2022-10-13T07:48:14.550Z,17.90
2022-10-13T07:50:41.138Z,17.20
2022-10-13T07:53:08.035Z,15.43
2022-10-13T07:55:34.857Z,16.00
2022-10-13T07:58:02.658Z,16.00
2022-10-13T08:00:29.430Z,15.38
2022-10-13T08:02:56.015Z,15.38
2022-10-13T08:05:22.743Z,16.50
2022-10-13T08:07:49.823Z,15.43
2022-10-13T08:10:18.437Z,15.82
2022-10-13T08:12:45.019Z,15.75
2022-10-13T08:15:11.707Z,16.05
2022-10-13T08:17:38.416Z,16.05
2022-10-13T08:20:06.623Z,15.23
2022-10-13T08:22:34.346Z,17.35
2022-10-13T08:25:04.378Z,16.73
2022-10-13T08:27:49.662Z,19.25
2022-10-13T08:30:17.791Z,20.45
2022-10-13T08:32:44.663Z,20.35
2022-10-13T08:35:11.680Z,23.83
2022-10-13T08:37:38.341Z,22.98
2022-10-13T08:40:05.602Z,23.80
2022-10-13T08:42:32.352Z,24.17
2022-10-13T08:47:54.752Z,23.83
2022-10-13T08:50:24.444Z,22.33
2022-10-13T08:55:51.575Z,23.75
2022-10-13T08:58:25.919Z,22.85
2022-10-13T09:01:03.403Z,23.27
2022-10-13T09:03:30.355Z,21.48
2022-10-13T09:06:14.800Z,22.80
2022-10-13T09:08:48.587Z,22.33
2022-10-13T09:11:15.429Z,24.00
2022-10-13T09:13:42.407Z,21.40
2022-10-13T09:16:09.130Z,19.60
2022-10-13T09:18:37.605Z,20.52
2022-10-13T09:21:21.671Z,21.30
2022-10-13T09:23:50.622Z,21.05
2022-10-13T09:26:25.176Z,21.48
2022-10-13T09:28:53.070Z,21.50
2022-10-13T09:31:28.398Z,23.90
2022-10-13T09:34:21.480Z,22.42
2022-10-13T09:37:03.497Z,22.33
2022-10-13T09:39:31.397Z,22.92
2022-10-13T09:42:19.499Z,23.08
2022-10-13T09:44:47.117Z,22.27
2022-10-13T09:47:21.645Z,20.77
2022-10-13T09:50:06.417Z,24.33
2022-10-13T09:52:34.679Z,21.52
2022-10-13T09:55:01.448Z,23.73
2022-10-13T09:57:41.679Z,25.55
2022-10-13T10:00:24.231Z,22.35
2022-10-13T10:03:06.382Z,24.27
2022-10-13T10:05:35.783Z,27.52
2022-10-13T10:08:28.821Z,26.90
2022-10-13T10:11:03.476Z,24.73
2022-10-13T10:13:31.412Z,25.55
2022-10-13T10:16:20.919Z,26.48
2022-10-13T10:19:13.038Z,23.17
2022-10-13T10:22:17.901Z,24.88
2022-10-13T10:25:29.928Z,25.55
2022-10-13T10:28:14.471Z,26.25
2022-10-13T10:30:51.340Z,24.95
2022-10-13T10:33:32.393Z,24.55
2022-10-13T10:36:08.608Z,24.75
2022-10-13T10:38:41.242Z,25.83
2022-10-13T10:41:20.723Z,25.33
2022-10-13T10:43:55.332Z,27.60
2022-10-13T10:46:39.259Z,27.75
2022-10-13T10:49:16.453Z,27.17
2022-10-13T10:51:44.289Z,30.10
2022-10-13T10:54:20.578Z,29.95
2022-10-13T10:57:02.189Z,29.20
2022-10-13T10:59:42.826Z,30.58
2022-10-13T11:02:33.957Z,31.52
2022-10-13T11:05:05.309Z,31.70
2022-10-13T11:07:33.270Z,31.05
2022-10-13T11:09:59.846Z,32.05
2022-10-13T11:12:46.398Z,35.05
2022-10-13T11:15:18.964Z,36.20
2022-10-13T11:17:45.613Z,38.45
2022-10-13T11:20:48.733Z,39.58
2022-10-13T11:23:31.855Z,36.05
2022-10-13T11:26:19.993Z,34.85
2022-10-13T11:28:47.910Z,31.33
2022-10-13T11:31:14.518Z,32.85
2022-10-13T11:33:41.077Z,34.30
2022-10-13T11:36:36.220Z,33.15
2022-10-13T11:39:38.080Z,30.77
2022-10-13T11:42:32.731Z,29.52
2022-10-13T11:45:02.405Z,29.73
2022-10-13T11:50:28.885Z,29.67
2022-10-13T11:53:21.504Z,30.48
2022-10-13T11:55:51.420Z,31.10
2022-10-13T11:58:24.017Z,28.88
2022-10-13T12:01:08.555Z,27.60
2022-10-13T12:03:38.572Z,29.55
2022-10-13T12:06:34.121Z,30.77
2022-10-13T12:09:03.579Z,29.58
2022-10-13T12:11:33.715Z,29.00
2022-10-13T12:14:02.063Z,28.67
2022-10-13T12:16:30.044Z,31.08
2022-10-13T12:19:18.800Z,29.05
2022-10-13T12:21:50.372Z,32.30
2022-10-13T12:24:17.116Z,31.23
2022-10-13T12:26:44.086Z,30.20
2022-10-13T12:29:14.298Z,29.60
2022-10-13T12:31:46.160Z,30.90
2022-10-13T12:34:28.124Z,30.60
2022-10-13T12:37:05.543Z,28.73
2022-10-13T12:39:34.941Z,26.27
2022-10-13T12:42:03.513Z,26.73
2022-10-13T12:44:32.089Z,26.25
2022-10-13T12:47:03.748Z,25.67
2022-10-13T12:49:33.161Z,24.85
2022-10-13T12:52:10.765Z,27.00
2022-10-13T12:54:50.832Z,25.02
2022-10-13T12:57:21.538Z,24.33
2022-10-13T12:59:49.186Z,24.88
2022-10-13T13:02:29.481Z,25.00
2022-10-13T13:04:56.245Z,25.02
2022-10-13T13:07:27.675Z,24.88
2022-10-13T13:10:23.689Z,25.23
2022-10-13T13:12:52.168Z,26.42
2022-10-13T13:15:24.678Z,26.75
2022-10-13T13:17:59.334Z,27.17
2022-10-13T13:20:29.173Z,26.83
2022-10-13T13:22:56.235Z,25.05
2022-10-13T13:25:23.595Z,28.13
2022-10-13T13:27:50.841Z,29.73
2022-10-13T13:30:20.447Z,29.52
2022-10-13T13:32:47.333Z,27.98
2022-10-13T13:35:14.162Z,27.65
2022-10-13T13:37:45.238Z,28.00
2022-10-13T13:40:16.613Z,26.85
2022-10-13T13:42:43.243Z,23.45
2022-10-13T13:45:21.663Z,25.45
2022-10-13T13:47:48.619Z,24.33
2022-10-13T13:50:26.808Z,25.33
2022-10-13T13:52:53.554Z,26.02
2022-10-13T13:55:20.343Z,26.83
2022-10-13T13:57:46.915Z,25.58
2022-10-13T14:00:15.469Z,24.73
2022-10-13T14:02:43.926Z,25.70
2022-10-13T14:05:12.305Z,22.98
2022-10-13T14:07:39.788Z,25.40
2022-10-13T14:10:07.823Z,27.00
2022-10-13T14:12:34.456Z,26.98
2022-10-13T14:15:01.201Z,23.85
2022-10-13T14:17:28.344Z,23.92
2022-10-13T14:19:55.158Z,24.08
2022-10-13T14:22:22.718Z,21.27
2022-10-13T14:24:49.749Z,20.90
2022-10-13T14:27:16.407Z,20.73
2022-10-13T14:29:43.031Z,24.48
2022-10-13T14:32:09.698Z,26.60
2022-10-13T14:34:36.327Z,24.98
2022-10-13T14:37:03.023Z,34.67
2022-10-13T14:39:29.759Z,38.20
2022-10-13T14:41:56.468Z,36.72
2022-10-13T14:44:23.110Z,33.25
2022-10-13T14:46:49.730Z,31.63
2022-10-13T14:49:16.647Z,29.30
2022-10-13T14:51:43.709Z,28.83
2022-10-13T14:54:10.814Z,27.95
2022-10-13T14:56:37.564Z,26.65
2022-10-13T14:59:06.090Z,30.05
2022-10-13T15:01:33.438Z,29.95
2022-10-13T15:04:01.656Z,29.23
2022-10-13T15:06:28.695Z,29.83
2022-10-13T15:08:55.615Z,30.17
2022-10-13T15:11:22.691Z,27.92
2022-10-13T15:13:49.728Z,26.00
2022-10-13T15:16:22.040Z,29.27
2022-10-13T15:18:49.460Z,27.60
2022-10-13T15:21:17.017Z,28.10
2022-10-13T15:23:43.757Z,26.25
2022-10-13T15:26:12.133Z,27.23
2022-10-13T15:28:43.885Z,28.15
2022-10-13T15:31:12.030Z,26.08
2022-10-13T15:33:39.511Z,25.05
2022-10-13T15:36:06.377Z,25.65
2022-10-13T15:38:32.973Z,27.10
2022-10-13T15:41:04.235Z,24.20
2022-10-13T15:43:31.137Z,25.00
2022-10-13T15:46:02.171Z,24.95
2022-10-13T15:48:28.961Z,26.67
2022-10-13T15:50:55.622Z,25.92
2022-10-13T15:53:22.582Z,27.58
2022-10-13T15:55:49.463Z,26.13
2022-10-13T15:58:17.176Z,25.95
2022-10-13T16:00:44.472Z,26.45
2022-10-13T16:03:18.235Z,26.75
2022-10-13T16:05:46.305Z,29.92
2022-10-13T16:08:13.875Z,27.85
2022-10-13T16:10:41.836Z,27.38
2022-10-13T16:13:09.626Z,27.50
2022-10-13T16:15:36.374Z,27.90
2022-10-13T16:18:03.201Z,26.45
2022-10-13T16:20:34.540Z,26.17
2022-10-13T16:23:01.649Z,26.35
2022-10-13T16:25:29.369Z,27.67
2022-10-13T16:27:56.385Z,26.17
2022-10-13T16:30:23.053Z,27.45
2022-10-13T16:32:49.647Z,26.63
2022-10-13T16:35:16.389Z,24.92
2022-10-13T16:37:43.179Z,26.30
2022-10-13T16:40:10.293Z,29.90
2022-10-13T16:42:36.883Z,27.98
2022-10-13T16:45:04.236Z,30.52
2022-10-13T16:47:30.980Z,30.20
2022-10-13T16:49:57.739Z,32.92
2022-10-13T16:52:24.308Z,32.97
2022-10-13T16:54:51.053Z,34.97
2022-10-13T16:57:17.922Z,32.95
2022-10-13T16:59:44.745Z,35.10
2022-10-13T17:02:15.330Z,33.83
2022-10-13T17:04:42.855Z,35.20
2022-10-13T17:07:09.587Z,38.35
2022-10-13T17:09:36.209Z,35.47
2022-10-13T17:12:04.071Z,37.97
2022-10-13T17:14:31.235Z,37.40
2022-10-13T17:16:58.314Z,38.08
2022-10-13T17:19:25.625Z,39.08
2022-10-13T17:21:52.240Z,38.92
2022-10-13T17:24:19.171Z,36.95
2022-10-13T17:26:45.780Z,34.13
2022-10-13T17:29:12.597Z,43.40
2022-10-13T17:31:39.332Z,40.78
2022-10-13T17:34:06.410Z,41.03
2022-10-13T17:36:34.074Z,42.03
2022-10-13T17:39:08.768Z,41.67
2022-10-13T17:41:35.507Z,43.53
2022-10-13T17:44:02.305Z,43.92
2022-10-13T17:46:36.748Z,44.38
2022-10-13T17:49:04.958Z,41.00
2022-10-13T17:51:31.689Z,44.00
2022-10-13T17:53:59.665Z,45.42
2022-10-13T17:56:26.808Z,47.75
2022-10-13T17:58:53.920Z,46.55
2022-10-13T18:01:26.835Z,47.40
2022-10-13T18:03:55.945Z,45.95
2022-10-13T18:06:23.429Z,45.88
2022-10-13T18:08:50.816Z,52.60
2022-10-13T18:11:19.447Z,52.65
2022-10-13T18:13:46.794Z,52.97
2022-10-13T18:16:21.694Z,52.38
2022-10-13T18:18:50.125Z,53.15
2022-10-13T18:21:22.140Z,54.22
2022-10-13T18:23:48.919Z,50.40
2022-10-13T18:26:17.779Z,52.65
2022-10-13T18:28:45.507Z,54.07
2022-10-13T18:31:13.702Z,51.28
2022-10-13T18:33:40.787Z,53.83
2022-10-13T18:36:31.671Z,52.80
2022-10-13T18:39:05.520Z,50.30
2022-10-13T18:41:33.165Z,52.17
2022-10-13T18:43:59.912Z,50.53
2022-10-13T18:46:26.523Z,66.82
2022-10-13T18:48:53.179Z,62.25
2022-10-13T18:51:20.339Z,55.15
2022-10-13T18:53:50.453Z,50.63
2022-10-13T18:56:26.076Z,51.05
2022-10-13T18:58:59.317Z,48.53
2022-10-13T19:01:28.995Z,46.38
2022-10-13T19:03:55.947Z,50.83
2022-10-13T19:06:27.895Z,47.70
2022-10-13T19:08:56.484Z,47.72
2022-10-13T19:11:24.122Z,47.25
2022-10-13T19:13:51.554Z,45.97
2022-10-13T19:16:21.434Z,47.38
2022-10-13T19:18:50.242Z,46.97
2022-10-13T19:21:18.083Z,46.53
2022-10-13T19:23:44.707Z,45.63
2022-10-13T19:26:17.309Z,43.60
2022-10-13T19:28:44.513Z,42.80
2022-10-13T19:31:14.967Z,43.88
2022-10-13T19:33:45.314Z,43.03
2022-10-13T19:36:21.189Z,41.28
2022-10-13T19:38:47.838Z,43.67
2022-10-13T19:41:14.982Z,41.13
2022-10-13T19:43:41.745Z,41.63
2022-10-13T19:46:08.994Z,42.83
2022-10-13T19:48:35.786Z,41.00
2022-10-13T19:51:05.840Z,41.38
2022-10-13T19:53:33.366Z,85.07
2022-10-13T19:55:59.961Z,48.83
2022-10-13T19:58:26.733Z,39.08
2022-10-13T20:00:53.435Z,38.22
2022-10-13T20:03:20.223Z,34.20
2022-10-13T20:05:47.015Z,38.20
2022-10-13T20:08:13.815Z,36.97
2022-10-13T20:10:42.615Z,35.97
2022-10-13T20:13:10.312Z,40.80
2022-10-13T20:15:41.528Z,35.90
2022-10-13T20:18:09.648Z,37.55
2022-10-13T20:20:36.410Z,36.38
2022-10-13T20:23:03.298Z,42.97
2022-10-13T20:25:30.003Z,45.38
2022-10-13T20:27:56.783Z,48.50
2022-10-13T20:30:23.599Z,48.58
2022-10-13T20:32:50.169Z,40.80
2022-10-13T20:35:16.840Z,35.63
2022-10-13T20:37:43.506Z,38.92
2022-10-13T20:40:10.417Z,43.30
2022-10-13T20:42:37.096Z,43.45
2022-10-13T20:45:04.469Z,45.65
2022-10-13T20:47:31.058Z,43.72
2022-10-13T20:49:57.716Z,45.85
2022-10-13T20:52:24.361Z,43.65
2022-10-13T20:54:50.948Z,43.15
2022-10-13T20:57:17.661Z,44.53
2022-10-13T20:59:44.315Z,45.60
2022-10-13T21:02:13.101Z,42.58
2022-10-13T21:04:39.849Z,43.65
2022-10-13T21:07:06.490Z,44.95
2022-10-13T21:09:35.419Z,44.45
2022-10-13T21:12:02.059Z,43.05
2022-10-13T21:14:28.822Z,44.13
2022-10-13T21:16:55.421Z,47.05
2022-10-13T21:19:22.197Z,44.88
2022-10-13T21:21:48.775Z,43.45
2022-10-13T21:24:15.488Z,41.92
2022-10-13T21:26:42.061Z,42.60
2022-10-13T21:29:08.754Z,38.00
2022-10-13T21:31:35.706Z,39.35
2022-10-13T21:34:02.349Z,38.17
2022-10-13T21:36:30.805Z,38.05
2022-10-13T21:39:03.822Z,38.60
2022-10-13T21:41:30.525Z,38.05
2022-10-13T21:43:57.599Z,35.85
2022-10-13T21:46:26.975Z,36.50
2022-10-13T21:48:56.488Z,38.88
2022-10-13T21:51:24.744Z,35.42
2022-10-13T21:53:56.785Z,34.53
2022-10-13T21:56:24.228Z,34.88
2022-10-13T21:58:51.089Z,36.38
2022-10-13T22:01:19.101Z,35.78
2022-10-13T22:03:47.098Z,35.25
2022-10-13T22:06:19.015Z,36.70
2022-10-13T22:08:48.501Z,35.10
2022-10-13T22:11:16.342Z,34.70
2022-10-13T22:13:43.257Z,34.22
2022-10-13T22:16:12.901Z,31.50
2022-10-13T22:18:39.503Z,31.90
2022-10-13T22:21:10.243Z,35.85
2022-10-13T22:23:36.839Z,33.95
2022-10-13T22:26:03.824Z,32.33
2022-10-13T22:28:36.029Z,34.97
2022-10-13T22:31:06.114Z,33.55
2022-10-13T22:33:35.318Z,33.95
2022-10-13T22:36:07.688Z,34.00
2022-10-13T22:38:34.684Z,37.17
2022-10-13T22:41:05.887Z,36.20
2022-10-13T22:43:32.715Z,35.13
2022-10-13T22:45:59.379Z,36.10
2022-10-13T22:48:26.108Z,33.05
2022-10-13T22:50:52.747Z,32.55
2022-10-13T22:53:19.505Z,35.78
2022-10-13T22:55:46.238Z,35.33
2022-10-13T22:58:12.947Z,35.83
2022-10-13T23:00:39.770Z,37.17
2022-10-13T23:03:06.847Z,37.28
2022-10-13T23:05:33.485Z,39.22
2022-10-13T23:08:00.112Z,38.40
2022-10-13T23:10:26.832Z,38.22
2022-10-13T23:12:53.530Z,37.65
2022-10-13T23:15:20.122Z,36.00
2022-10-13T23:17:46.712Z,36.10
2022-10-13T23:20:13.322Z,38.28
2022-10-13T23:22:40.047Z,39.13
2022-10-13T23:25:06.973Z,38.35
2022-10-13T23:27:33.640Z,36.85
2022-10-13T23:30:00.244Z,38.55
2022-10-13T23:32:26.815Z,39.45
2022-10-13T23:34:53.442Z,38.42
2022-10-13T23:37:20.389Z,37.97
2022-10-13T23:39:47.177Z,38.30
2022-10-13T23:42:13.754Z,38.42
2022-10-13T23:44:40.424Z,36.53
2022-10-13T23:47:07.046Z,40.45
2022-10-13T23:49:33.618Z,38.00
2022-10-13T23:52:00.335Z,40.58
2022-10-13T23:54:26.912Z,38.33
2022-10-13T23:56:53.573Z,38.80
2022-10-13T23:59:20.249Z,40.92
